Time;durP1;ratioP1;P1;durP2;ratioP2;P2;SDS_P1;SDS_P2;PMS_P1;PMS_P2;Temp;Humidity;BMP_temperature;BMP_pressure;BME280_temperature;BME280_humidity;BME280_pressure;Samples;Min_cycle;Max_cycle;Signal;HPM_P1;HPM_P2
2021/01/31 00:00:19;;;;;;;19.93;14.20;;;;;;;4.01;100.00;100252.00;5093046;28;20418;-70
2021/01/31 00:02:45;;;;;;;24.93;15.77;;;;;;;3.80;100.00;100260.78;5093007;28;20164;-70
2021/01/31 00:05:10;;;;;;;21.93;15.30;;;;;;;3.69;100.00;100258.69;5075748;28;20413;-70
2021/01/31 00:07:36;;;;;;;26.27;16.83;;;;;;;3.84;100.00;100260.56;5093265;28;20214;-70
2021/01/31 00:10:03;;;;;;;21.10;15.20;;;;;;;3.76;100.00;100269.63;5092856;28;20198;-70
2021/01/31 00:12:29;;;;;;;23.90;16.43;;;;;;;3.64;100.00;100275.41;5092774;28;20219;-70
2021/01/31 00:14:54;;;;;;;21.17;14.17;;;;;;;3.86;100.00;100268.31;5091912;28;20508;-70
2021/01/31 00:17:20;;;;;;;24.17;14.70;;;;;;;3.92;100.00;100272.34;5094326;28;20174;-70
2021/01/31 00:19:45;;;;;;;19.63;13.77;;;;;;;3.75;100.00;100267.94;5105665;28;20183;-71
2021/01/31 00:22:11;;;;;;;21.80;14.60;;;;;;;3.81;100.00;100273.72;5093058;28;20164;-70
2021/01/31 00:24:36;;;;;;;20.10;14.23;;;;;;;3.96;100.00;100276.50;5092046;28;20280;-70
2021/01/31 00:27:02;;;;;;;18.40;12.60;;;;;;;3.99;100.00;100281.56;5092197;28;20622;-70
2021/01/31 00:29:27;;;;;;;19.27;12.40;;;;;;;3.95;100.00;100275.66;5091909;28;20192;-70
2021/01/31 00:31:53;;;;;;;19.90;13.63;;;;;;;3.85;100.00;100277.88;5087079;28;20168;-69
2021/01/31 00:34:20;;;;;;;19.27;14.07;;;;;;;3.84;100.00;100288.31;5094196;28;20241;-70
2021/01/31 00:36:46;;;;;;;22.80;15.50;;;;;;;3.76;100.00;100287.81;5092893;28;20900;-70
2021/01/31 00:39:13;;;;;;;23.40;15.00;;;;;;;3.81;100.00;100286.69;5097462;28;20397;-70
2021/01/31 00:41:39;;;;;;;24.63;16.23;;;;;;;3.89;100.00;100283.75;5097710;28;20410;-70
2021/01/31 00:44:06;;;;;;;25.80;15.63;;;;;;;3.83;100.00;100284.03;5091216;28;20926;-70
2021/01/31 00:46:37;;;;;;;23.47;15.93;;;;;;;3.85;100.00;100285.66;5092974;28;20474;-70
2021/01/31 00:49:04;;;;;;;20.33;15.10;;;;;;;3.84;100.00;100285.69;5074245;28;20994;-70
2021/01/31 00:51:29;;;;;;;29.13;16.63;;;;;;;3.79;100.00;100290.28;5092457;28;20404;-70
2021/01/31 00:53:55;;;;;;;28.20;19.47;;;;;;;3.55;100.00;100300.88;5091186;28;20810;-70
2021/01/31 00:56:20;;;;;;;25.67;17.53;;;;;;;3.55;100.00;100297.41;5092265;28;20160;-70
2021/01/31 00:58:46;;;;;;;25.73;17.83;;;;;;;3.48;100.00;100294.28;5092587;28;20284;-69
2021/01/31 01:01:14;;;;;;;24.37;16.40;;;;;;;3.42;100.00;100291.97;5092664;28;20171;-70
2021/01/31 01:03:40;;;;;;;25.80;17.80;;;;;;;3.44;100.00;100292.72;5091826;28;20421;-70
2021/01/31 01:06:05;;;;;;;27.00;17.83;;;;;;;3.42;100.00;100291.97;5092266;28;20422;-69
2021/01/31 01:08:31;;;;;;;25.73;17.77;;;;;;;3.43;100.00;100290.19;5074035;28;20280;-70
2021/01/31 01:10:56;;;;;;;24.97;16.63;;;;;;;3.69;100.00;100294.19;5095280;28;20183;-70
2021/01/31 01:13:22;;;;;;;27.43;17.20;;;;;;;3.89;100.00;100286.34;5091120;28;20681;-71
2021/01/31 01:15:47;;;;;;;26.40;17.03;;;;;;;3.82;100.00;100290.97;5092936;28;20160;-71
2021/01/31 01:18:13;;;;;;;28.83;19.40;;;;;;;3.85;100.00;100292.59;5092328;28;20163;-71
2021/01/31 01:20:38;;;;;;;28.63;18.50;;;;;;;3.84;100.00;100290.91;5092226;28;20160;-72
2021/01/31 01:23:04;;;;;;;27.53;18.30;;;;;;;3.78;100.00;100296.38;5093013;28;20191;-71
2021/01/31 01:25:29;;;;;;;43.43;19.57;;;;;;;3.61;100.00;100298.00;5092816;28;20217;-71
2021/01/31 01:27:55;;;;;;;31.10;19.47;;;;;;;3.38;100.00;100298.19;5092083;28;20263;-71
2021/01/31 01:30:25;;;;;;;26.57;18.90;;;;;;;3.24;100.00;100297.94;5091536;28;20175;-72
2021/01/31 01:32:51;;;;;;;32.03;20.37;;;;;;;3.10;100.00;100303.75;5092207;28;20402;-71
2021/01/31 01:35:17;;;;;;;33.97;21.60;;;;;;;3.14;100.00;100310.47;5092422;28;20417;-71
2021/01/31 01:37:43;;;;;;;30.50;20.80;;;;;;;2.94;100.00;100316.50;5092161;28;20437;-71
2021/01/31 01:40:17;;;;;;;30.30;20.77;;;;;;;2.87;100.00;100316.84;5092052;28;20460;-71
2021/01/31 01:42:42;;;;;;;31.07;21.40;;;;;;;2.96;100.00;100321.66;5093260;28;20417;-72
2021/01/31 01:45:08;;;;;;;27.70;21.27;;;;;;;3.14;100.00;100322.63;5112897;28;20401;-71
2021/01/31 01:47:35;;;;;;;33.33;22.23;;;;;;;3.20;100.00;100306.78;5112880;28;20155;-71
2021/01/31 01:50:32;;;;;;;29.87;20.33;;;;;;;2.98;100.00;100312.06;5109752;28;20392;-72
2021/01/31 01:52:59;;;;;;;31.13;20.60;;;;;;;2.95;100.00;100310.44;5091273;28;20505;-72
2021/01/31 01:55:26;;;;;;;30.10;19.30;;;;;;;2.99;100.00;100299.00;5092257;28;20390;-72
2021/01/31 01:57:56;;;;;;;31.47;19.70;;;;;;;3.12;100.00;100294.16;5092023;28;20850;-72
2021/01/31 02:00:23;;;;;;;28.00;19.07;;;;;;;3.21;100.00;100288.53;5092229;28;20394;-72
2021/01/31 02:03:32;;;;;;;24.27;16.60;;;;;;;3.30;100.00;100298.53;5091859;28;20437;-72
2021/01/31 02:06:04;;;;;;;23.43;16.90;;;;;;;3.34;100.00;100299.25;5082168;28;20499;-72
2021/01/31 02:08:29;;;;;;;22.93;16.53;;;;;;;3.36;100.00;100309.56;5092346;28;20484;-72
2021/01/31 02:10:55;;;;;;;21.27;15.93;;;;;;;3.50;100.00;100299.41;5091683;28;20406;-72
2021/01/31 02:13:21;;;;;;;21.63;14.63;;;;;;;3.41;100.00;100305.84;5091587;28;20190;-72
2021/01/31 02:15:47;;;;;;;22.00;15.27;;;;;;;3.54;100.00;100306.97;5092261;28;20163;-72
2021/01/31 02:18:33;;;;;;;24.90;15.50;;;;;;;3.42;100.00;100322.28;5091630;28;20406;-71
2021/01/31 02:21:49;;;;;;;24.00;14.60;;;;;;;3.30;100.00;100331.44;5091943;28;20392;-73
2021/01/31 02:24:52;;;;;;;32.87;21.27;;;;;;;3.19;100.00;100325.88;5029139;28;20463;-70
2021/01/31 02:27:48;;;;;;;29.07;18.20;;;;;;;3.19;100.00;100325.88;4999648;28;20517;-72
2021/01/31 02:30:38;;;;;;;29.63;19.20;;;;;;;3.10;100.00;100327.09;5071069;28;20421;-72
2021/01/31 02:33:40;;;;;;;27.23;17.90;;;;;;;2.96;100.00;100330.28;5091788;28;20443;-71
2021/01/31 02:36:12;;;;;;;28.43;17.20;;;;;;;3.11;100.00;100333.13;5091344;28;20400;-71
2021/01/31 02:38:54;;;;;;;25.90;17.53;;;;;;;3.03;100.00;100330.88;5091541;28;20772;-71
2021/01/31 02:41:37;;;;;;;29.57;18.50;;;;;;;2.92;100.00;100323.53;5090587;28;20410;-72
2021/01/31 02:44:08;;;;;;;20.90;14.07;;;;;;;3.12;100.00;100329.63;5091018;28;20413;-72
2021/01/31 02:46:45;;;;;;;21.63;14.40;;;;;;;2.99;100.00;100329.31;5091426;28;20514;-73
2021/01/31 02:49:18;;;;;;;25.20;13.77;;;;;;;3.02;100.00;100339.53;5091299;28;20445;-72
2021/01/31 02:51:50;;;;;;;24.83;16.57;;;;;;;2.90;100.00;100347.84;5090993;28;20823;-71
2021/01/31 02:54:22;;;;;;;21.27;15.50;;;;;;;2.72;100.00;100344.25;5090970;28;20409;-73
2021/01/31 02:56:56;;;;;;;21.63;15.90;;;;;;;2.61;100.00;100343.84;5091138;28;20398;-73
2021/01/31 02:59:27;;;;;;;29.07;16.20;;;;;;;2.46;100.00;100345.31;5091266;28;20829;-71
2021/01/31 03:02:05;;;;;;;23.07;14.97;;;;;;;2.42;100.00;100354.13;5091211;28;20398;-72
2021/01/31 03:04:34;;;;;;;26.87;17.27;;;;;;;2.55;100.00;100351.88;5091237;28;20417;-71
2021/01/31 03:07:10;;;;;;;26.30;17.67;;;;;;;2.48;100.00;100362.47;5090825;28;20406;-73
2021/01/31 03:09:49;;;;;;;25.40;14.60;;;;;;;2.77;100.00;100353.53;5091582;28;20472;-72
2021/01/31 03:12:23;;;;;;;21.90;14.97;;;;;;;2.75;100.00;100351.91;5090489;28;20445;-73
2021/01/31 03:14:57;;;;;;;23.03;15.70;;;;;;;2.76;100.00;100351.00;5091527;28;20952;-73
2021/01/31 03:17:42;;;;;;;22.23;13.83;;;;;;;2.81;100.00;100351.69;5090963;28;20409;-73
2021/01/31 03:20:15;;;;;;;18.90;15.10;;;;;;;2.72;100.00;100355.50;5090780;28;20946;-71
2021/01/31 03:23:05;;;;;;;20.53;13.70;;;;;;;2.76;100.00;100353.59;5090985;28;20409;-72
2021/01/31 03:25:38;;;;;;;18.90;12.27;;;;;;;2.77;100.00;100357.88;5090908;28;20542;-71
2021/01/31 03:28:03;;;;;;;19.47;12.70;;;;;;;2.65;100.00;100359.25;5091021;28;20445;-73
2021/01/31 03:30:29;;;;;;;23.17;15.40;;;;;;;2.48;100.00;100357.31;5091078;28;20426;-72
2021/01/31 03:33:03;;;;;;;20.83;14.20;;;;;;;2.39;100.00;100369.78;5091216;28;20406;-72
2021/01/31 03:35:35;;;;;;;24.00;15.60;;;;;;;2.27;100.00;100362.47;5090500;28;20164;-70
2021/01/31 03:38:04;;;;;;;21.97;15.27;;;;;;;2.15;100.00;100361.22;5090417;28;20410;-72
2021/01/31 03:40:30;;;;;;;21.20;13.57;;;;;;;2.43;100.00;100369.63;5091197;28;20398;-72
2021/01/31 03:42:56;;;;;;;21.53;14.77;;;;;;;2.39;100.00;100373.22;5102657;28;20412;-72
2021/01/31 03:45:30;;;;;;;24.43;14.90;;;;;;;2.22;100.00;100368.69;5111357;28;20393;-72
2021/01/31 03:48:09;;;;;;;22.20;15.30;;;;;;;2.10;100.00;100370.91;5110983;28;20187;-71
2021/01/31 03:50:35;;;;;;;20.80;15.10;;;;;;;2.08;100.00;100378.75;5111231;28;20384;-71
2021/01/31 03:53:01;;;;;;;21.27;13.30;;;;;;;2.10;100.00;100379.50;5111910;28;20769;-72
2021/01/31 03:55:27;;;;;;;20.50;13.33;;;;;;;2.17;100.00;100380.13;5114999;28;20144;-71
2021/01/31 03:58:15;;;;;;;23.70;15.20;;;;;;;2.27;100.00;100381.50;5096668;28;20462;-71
2021/01/31 04:00:50;;;;;;;29.77;15.90;;;;;;;2.31;100.00;100387.38;5094205;28;20163;-72
2021/01/31 04:03:18;;;;;;;20.03;15.10;;;;;;;2.22;100.00;100378.22;5088495;28;20409;-72
2021/01/31 04:05:55;;;;;;;28.13;19.03;;;;;;;2.20;100.00;100382.63;5094572;28;20437;-72
2021/01/31 04:08:20;;;;;;;32.30;21.30;;;;;;;2.32;100.00;100389.91;5094564;28;20986;-72
2021/01/31 04:10:46;;;;;;;29.80;20.27;;;;;;;2.33;100.00;100399.38;5094338;28;20418;-71
2021/01/31 04:13:13;;;;;;;36.37;22.00;;;;;;;2.29;100.00;100400.41;5090754;28;20195;-72
2021/01/31 04:15:40;;;;;;;30.93;23.07;;;;;;;2.40;100.00;100389.63;5093978;28;20394;-71
2021/01/31 04:18:07;;;;;;;33.07;23.40;;;;;;;2.24;100.00;100386.78;5093823;28;20953;-72
2021/01/31 04:20:33;;;;;;;36.27;22.33;;;;;;;2.14;100.00;100390.63;5092784;28;20412;-72
2021/01/31 04:22:59;;;;;;;34.00;23.70;;;;;;;2.02;100.00;100391.06;5093581;28;20414;-72
2021/01/31 04:25:26;;;;;;;40.50;23.60;;;;;;;2.09;100.00;100400.31;5093931;28;20460;-72
2021/01/31 04:27:51;;;;;;;32.57;22.33;;;;;;;2.14;100.00;100393.22;5093552;28;20277;-71
2021/01/31 04:30:17;;;;;;;30.43;22.47;;;;;;;2.18;100.00;100403.38;5093446;28;20502;-71
2021/01/31 04:32:43;;;;;;;36.30;22.50;;;;;;;2.21;100.00;100405.88;5093412;28;20205;-71
2021/01/31 04:35:09;;;;;;;39.60;22.40;;;;;;;2.09;100.00;100408.09;5075127;28;20547;-70
2021/01/31 04:37:37;;;;;;;33.43;21.43;;;;;;;2.14;100.00;100412.19;5093580;28;20156;-72
2021/01/31 04:40:08;;;;;;;31.20;22.40;;;;;;;2.21;100.00;100418.84;5093392;28;20402;-72
2021/01/31 04:42:34;;;;;;;34.87;22.43;;;;;;;2.12;100.00;100419.19;5093006;28;20475;-71
2021/01/31 04:45:00;;;;;;;33.50;21.87;;;;;;;2.03;100.00;100418.66;5093653;28;20393;-72
2021/01/31 04:47:30;;;;;;;37.43;22.80;;;;;;;1.99;100.00;100415.34;5093971;28;20152;-71
2021/01/31 04:50:29;;;;;;;39.07;22.30;;;;;;;1.94;100.00;100417.25;5093887;28;20560;-72
2021/01/31 04:52:57;;;;;;;30.93;21.53;;;;;;;1.90;100.00;100413.13;5093307;28;20406;-73
2021/01/31 04:56:00;;;;;;;29.90;19.63;;;;;;;1.87;100.00;100419.22;5093027;28;20401;-72
2021/01/31 04:58:41;;;;;;;32.70;21.53;;;;;;;1.95;100.00;100427.56;5104110;28;20408;-71
2021/01/31 05:01:17;;;;;;;31.13;21.50;;;;;;;1.92;100.00;100429.44;5113600;28;20401;-70
2021/01/31 05:04:09;;;;;;;31.57;21.53;;;;;;;1.87;100.00;100439.94;5113471;28;20412;-72
2021/01/31 05:06:43;;;;;;;30.03;18.80;;;;;;;2.01;100.00;100436.03;5098736;28;20440;-73
2021/01/31 05:09:18;;;;;;;30.77;22.30;;;;;;;2.08;100.00;100432.31;5093373;28;20473;-71
2021/01/31 05:11:52;;;;;;;33.37;20.37;;;;;;;1.98;100.00;100437.00;5092057;28;20445;-72
2021/01/31 05:14:29;;;;;;;35.93;23.47;;;;;;;1.93;100.00;100431.97;5073092;28;20836;-73
2021/01/31 05:16:55;;;;;;;33.67;21.00;;;;;;;1.86;100.00;100435.66;5083288;28;20402;-70
2021/01/31 05:19:23;;;;;;;27.73;19.43;;;;;;;1.91;100.00;100431.19;5092469;28;20930;-72
2021/01/31 05:21:49;;;;;;;29.93;18.37;;;;;;;2.00;100.00;100435.19;5092420;28;20203;-71
2021/01/31 05:24:20;;;;;;;29.43;20.33;;;;;;;2.01;100.00;100434.28;5092733;28;20485;-72
2021/01/31 05:26:53;;;;;;;30.30;19.17;;;;;;;2.02;100.00;100432.53;5092939;28;20253;-72
2021/01/31 05:29:27;;;;;;;27.80;18.37;;;;;;;2.05;100.00;100446.22;5092657;28;20974;-71
2021/01/31 05:32:01;;;;;;;32.63;22.10;;;;;;;2.09;100.00;100459.91;5092203;28;20414;-70
2021/01/31 05:34:41;;;;;;;26.60;17.80;;;;;;;2.08;100.00;100453.03;5092533;28;20840;-71
2021/01/31 05:37:11;;;;;;;26.77;19.03;;;;;;;2.02;100.00;100455.84;5091779;28;20470;-71
2021/01/31 05:39:40;;;;;;;24.90;17.13;;;;;;;2.10;100.00;100464.19;5092499;28;20402;-71
2021/01/31 05:42:19;;;;;;;24.27;15.53;;;;;;;2.09;100.00;100455.56;5092556;28;20402;-71
2021/01/31 05:44:56;;;;;;;32.27;18.00;;;;;;;2.11;100.00;100463.28;5092492;28;20402;-71
2021/01/31 05:47:24;;;;;;;27.60;19.40;;;;;;;2.09;100.00;100462.50;5092547;28;20416;-72
2021/01/31 05:49:53;;;;;;;25.80;17.40;;;;;;;2.03;100.00;100465.28;5091661;28;20996;-69
2021/01/31 05:52:18;;;;;;;22.97;15.33;;;;;;;2.19;100.00;100464.72;5092139;28;20970;-73
2021/01/31 05:54:45;;;;;;;27.50;17.47;;;;;;;2.28;100.00;100460.09;5091809;28;20432;-71
2021/01/31 05:57:20;;;;;;;24.40;17.33;;;;;;;2.47;100.00;100456.72;5091326;28;20254;-71
2021/01/31 05:59:45;;;;;;;23.83;16.87;;;;;;;2.45;100.00;100455.09;5091883;28;20405;-71
2021/01/31 06:02:21;;;;;;;24.50;17.70;;;;;;;2.66;100.00;100456.03;5092090;28;20394;-73
2021/01/31 06:04:47;;;;;;;24.53;17.00;;;;;;;2.68;100.00;100455.06;5091990;28;20151;-72
2021/01/31 06:07:17;;;;;;;28.13;18.93;;;;;;;2.85;100.00;100462.16;5092034;28;20518;-71
2021/01/31 06:09:49;;;;;;;24.47;18.80;;;;;;;2.78;100.00;100461.56;5092451;28;20696;-71
2021/01/31 06:12:17;;;;;;;29.50;19.80;;;;;;;2.90;100.00;100465.44;5092693;28;20539;-72
2021/01/31 06:14:47;;;;;;;29.30;18.80;;;;;;;2.94;100.00;100467.00;5091588;28;20463;-72
2021/01/31 06:17:23;;;;;;;28.10;20.07;;;;;;;2.82;100.00;100470.09;5090740;28;20814;-72
2021/01/31 06:19:56;;;;;;;32.80;22.80;;;;;;;2.87;100.00;100475.94;5091935;28;20907;-71
2021/01/31 06:22:40;;;;;;;33.63;22.70;;;;;;;2.98;100.00;100471.16;5092121;28;20806;-72
2021/01/31 06:25:07;;;;;;;31.50;23.27;;;;;;;3.19;100.00;100472.06;5090610;28;20464;-71
2021/01/31 06:27:35;;;;;;;31.63;22.73;;;;;;;3.41;100.00;100472.03;5091396;28;20919;-71
2021/01/31 06:30:17;;;;;;;30.50;21.70;;;;;;;3.78;100.00;100473.03;5091297;28;20418;-73
2021/01/31 06:32:43;;;;;;;27.57;21.07;;;;;;;4.05;100.00;100465.81;5091723;28;20492;-71
2021/01/31 06:35:13;;;;;;;29.83;21.63;;;;;;;4.28;100.00;100463.00;5091386;28;20566;-71
2021/01/31 06:37:47;;;;;;;30.90;21.40;;;;;;;4.56;100.00;100465.19;5071239;28;20410;-71
2021/01/31 06:40:35;;;;;;;24.70;20.53;;;;;;;4.98;100.00;100454.50;5089112;28;20459;-71
2021/01/31 06:43:31;;;;;;;28.70;21.10;;;;;;;5.34;100.00;100448.41;5106498;28;20412;-72
2021/01/31 06:45:59;;;;;;;27.40;18.97;;;;;;;5.99;100.00;100446.00;5091417;28;20447;-72
2021/01/31 06:48:35;;;;;;;31.30;21.90;;;;;;;6.25;100.00;100445.44;5091008;28;20449;-71
2021/01/31 06:51:28;;;;;;;27.77;21.17;;;;;;;6.59;100.00;100436.66;5091044;28;20406;-72
2021/01/31 06:54:08;;;;;;;31.37;22.00;;;;;;;6.76;100.00;100435.69;5091251;28;20394;-72
2021/01/31 06:56:55;;;;;;;33.43;23.50;;;;;;;6.60;100.00;100424.44;5073115;28;20934;-72
2021/01/31 06:59:49;;;;;;;27.37;21.27;;;;;;;6.81;100.00;100430.25;5091134;28;20406;-72
2021/01/31 07:03:01;;;;;;;32.87;23.40;;;;;;;6.64;100.00;100428.53;5090313;28;20433;-71
2021/01/31 07:05:48;;;;;;;34.27;24.10;;;;;;;6.75;100.00;100436.63;5090984;28;20443;-69
2021/01/31 07:08:30;;;;;;;36.33;22.93;;;;;;;6.83;100.00;100437.03;5089680;28;20457;-72
2021/01/31 07:11:27;;;;;;;33.07;24.13;;;;;;;6.81;100.00;100440.69;5090454;28;20847;-71
2021/01/31 07:14:14;;;;;;;37.03;25.40;;;;;;;6.85;100.00;100435.19;5091069;28;20433;-71
2021/01/31 07:16:44;;;;;;;31.60;24.40;;;;;;;6.93;100.00;100445.19;5091211;28;20394;-71
2021/01/31 07:19:41;;;;;;;37.00;24.23;;;;;;;7.19;100.00;100447.19;5090749;28;20876;-72
2021/01/31 07:22:06;;;;;;;32.00;24.33;;;;;;;7.43;100.00;100444.91;5065525;28;20487;-72
2021/01/31 07:24:39;;;;;;;30.90;23.43;;;;;;;7.68;100.00;100459.16;5090243;28;20896;-72
2021/01/31 07:27:37;;;;;;;32.27;21.70;;;;;;;7.90;100.00;100459.53;5090320;28;20621;-72
2021/01/31 07:30:34;;;;;;;26.23;19.50;;;;;;;7.92;100.00;100464.69;5081400;28;20463;-72
2021/01/31 07:33:09;;;;;;;25.80;19.50;;;;;;;7.82;100.00;100467.00;5083053;28;20889;-72
2021/01/31 07:36:05;;;;;;;29.17;20.60;;;;;;;7.67;100.00;100463.53;5093976;28;20393;-70
2021/01/31 07:38:45;;;;;;;23.23;15.77;;;;;;;7.60;100.00;100458.75;5086393;28;20398;-72
2021/01/31 07:41:13;;;;;;;21.77;16.00;;;;;;;7.65;100.00;100465.41;5092773;28;20409;-70
2021/01/31 07:43:40;;;;;;;17.43;14.00;;;;;;;7.84;100.00;100469.53;5094586;28;20417;-72
2021/01/31 07:46:11;;;;;;;22.07;16.70;;;;;;;8.11;100.00;100470.50;5094525;28;20442;-71
2021/01/31 07:48:55;;;;;;;15.20;11.53;;;;;;;8.49;100.00;100470.78;5094414;28;20494;-71
2021/01/31 07:51:40;;;;;;;12.80;10.00;;;;;;;8.94;100.00;100463.56;5093851;28;20416;-71
2021/01/31 07:54:21;;;;;;;10.53;8.37;;;;;;;9.29;100.00;100471.72;5081897;28;20427;-71
2021/01/31 07:56:49;;;;;;;10.70;8.43;;;;;;;9.43;100.00;100463.78;5092842;28;20783;-71
2021/01/31 07:59:14;;;;;;;9.80;6.73;;;;;;;10.01;100.00;100469.50;5094389;28;20826;-70
2021/01/31 08:01:40;;;;;;;9.83;7.13;;;;;;;10.46;100.00;100455.00;5093680;28;20916;-70
2021/01/31 08:04:21;;;;;;;9.97;7.60;;;;;;;10.69;100.00;100455.97;5094076;28;20258;-71
2021/01/31 08:06:49;;;;;;;8.47;6.13;;;;;;;10.87;100.00;100451.16;5093627;28;20159;-69
2021/01/31 08:09:24;;;;;;;8.27;6.03;;;;;;;11.09;100.00;100447.81;5086575;28;20461;-71
2021/01/31 08:12:03;;;;;;;9.03;6.60;;;;;;;11.42;100.00;100447.13;5093832;28;20440;-72
2021/01/31 08:15:06;;;;;;;7.87;6.27;;;;;;;11.48;100.00;100457.16;5093069;28;20405;-70
2021/01/31 08:17:55;;;;;;;6.90;5.97;;;;;;;11.31;100.00;100473.38;5093215;28;20543;-72
2021/01/31 08:20:27;;;;;;;8.03;5.80;;;;;;;11.34;100.00;100484.53;5093399;28;20414;-71
2021/01/31 08:22:58;;;;;;;8.90;7.13;;;;;;;11.54;100.00;100488.28;5092797;28;20492;-70
2021/01/31 08:25:28;;;;;;;10.33;6.80;;;;;;;11.65;100.00;100474.34;5093184;28;20464;-69
2021/01/31 08:27:55;;;;;;;7.07;5.20;;;;;;;11.39;100.00;100471.84;5113413;28;20486;-72
2021/01/31 08:31:04;;;;;;;10.10;6.30;;;;;;;11.75;100.00;100470.03;5112297;28;20392;-70
2021/01/31 08:33:34;;;;;;;11.10;7.40;;;;;;;12.01;100.00;100475.97;5053871;28;20421;-69
2021/01/31 08:36:11;;;;;;;8.23;5.40;;;;;;;12.19;100.00;100478.97;5093772;28;20793;-69
2021/01/31 08:38:45;;;;;;;7.13;5.80;;;;;;;12.44;100.00;100484.00;5093226;28;20794;-69
2021/01/31 08:41:26;;;;;;;7.27;5.07;;;;;;;12.44;100.00;100491.91;5080620;28;20418;-69
2021/01/31 08:44:21;;;;;;;6.13;4.70;;;;;;;12.18;100.00;100495.75;5085758;28;20456;-69
2021/01/31 08:47:01;;;;;;;6.40;5.10;;;;;;;12.31;100.00;100488.53;5052612;28;20414;-71
2021/01/31 08:49:28;;;;;;;8.13;5.40;;;;;;;12.43;100.00;100490.22;5093217;28;20449;-68
2021/01/31 08:52:18;;;;;;;7.47;5.50;;;;;;;12.52;100.00;100488.66;5093107;28;20394;-68
2021/01/31 08:54:57;;;;;;;6.80;4.27;;;;;;;12.50;100.00;100491.44;5083864;28;20441;-72
2021/01/31 08:57:23;;;;;;;7.83;4.83;;;;;;;12.21;100.00;100492.88;5082804;28;20402;-72
2021/01/31 08:59:52;;;;;;;7.33;4.73;;;;;;;11.97;100.00;100492.97;5092707;28;20417;-71
2021/01/31 09:02:25;;;;;;;5.00;4.00;;;;;;;11.75;100.00;100495.53;5092428;28;20200;-72
2021/01/31 09:04:56;;;;;;;5.17;3.80;;;;;;;11.65;100.00;100495.38;5093056;28;20401;-71
2021/01/31 09:07:34;;;;;;;8.80;4.17;;;;;;;11.86;100.00;100493.78;5093185;28;20402;-71
2021/01/31 09:10:35;;;;;;;9.53;3.63;;;;;;;11.92;100.00;100495.94;5093072;28;20453;-71
2021/01/31 09:13:17;;;;;;;7.87;3.40;;;;;;;12.04;100.00;100496.81;5089092;28;20437;-69
2021/01/31 09:15:43;;;;;;;7.37;3.87;;;;;;;12.20;100.00;100493.81;5092643;28;20405;-71
2021/01/31 09:18:21;;;;;;;6.80;3.83;;;;;;;12.45;100.00;100490.94;5092123;28;20453;-71
2021/01/31 09:20:48;;;;;;;7.10;4.00;;;;;;;12.40;100.00;100487.84;5092484;28;20410;-70
2021/01/31 09:23:21;;;;;;;5.57;4.00;;;;;;;12.32;100.00;100489.38;5092827;28;20394;-70
2021/01/31 09:25:46;;;;;;;11.03;6.53;;;;;;;12.04;100.00;100482.81;5091870;28;20546;-70
2021/01/31 09:28:24;;;;;;;6.30;4.27;;;;;;;11.85;100.00;100489.47;5092291;28;20454;-71
2021/01/31 09:30:56;;;;;;;14.40;4.03;;;;;;;11.81;100.00;100485.41;5089954;28;20170;-71
2021/01/31 09:33:38;;;;;;;9.40;4.47;;;;;;;11.83;100.00;100494.00;5090101;28;20410;-73
2021/01/31 09:36:23;;;;;;;8.40;4.10;;;;;;;12.00;100.00;100479.56;5075863;28;20488;-71
2021/01/31 09:38:51;;;;;;;7.13;4.10;;;;;;;11.76;100.00;100481.41;5086748;28;20507;-70
2021/01/31 09:41:19;;;;;;;12.17;5.03;;;;;;;12.03;100.00;100481.97;5092013;28;20406;-69
2021/01/31 09:43:46;;;;;;;6.87;4.87;;;;;;;12.77;100.00;100480.50;5091681;28;20390;-70
2021/01/31 09:46:16;;;;;;;18.57;6.80;;;;;;;13.80;100.00;100464.13;5091324;28;20410;-71
2021/01/31 09:48:43;;;;;;;19.30;10.70;;;;;;;14.94;100.00;100461.22;5086094;28;20456;-70
2021/01/31 09:51:22;;;;;;;7.50;4.60;;;;;;;15.18;100.00;100459.00;5090864;28;20433;-70
2021/01/31 09:53:48;;;;;;;14.30;5.00;;;;;;;16.04;100.00;100446.66;5091471;28;20413;-70
2021/01/31 09:56:42;;;;;;;6.53;3.90;;;;;;;16.55;100.00;100444.44;5091223;28;20418;-71
2021/01/31 09:59:21;;;;;;;8.07;4.23;;;;;;;16.96;100.00;100444.94;5089190;28;20871;-70
2021/01/31 10:01:47;;;;;;;9.83;5.97;;;;;;;16.67;100.00;100451.22;5091730;28;20474;-71
2021/01/31 10:04:25;;;;;;;9.30;5.17;;;;;;;16.64;100.00;100446.25;5088960;28;20422;-71
2021/01/31 10:06:59;;;;;;;12.13;4.27;;;;;;;17.27;100.00;100445.38;5090679;28;20470;-69
2021/01/31 10:09:34;;;;;;;8.97;5.10;;;;;;;17.88;100.00;100440.06;5091820;28;20468;-73
2021/01/31 10:12:22;;;;;;;16.83;6.87;;;;;;;18.25;100.00;100441.56;5091075;28;20445;-69
2021/01/31 10:14:57;;;;;;;20.63;5.37;;;;;;;18.38;100.00;100441.97;5076852;28;20438;-70
2021/01/31 10:17:29;;;;;;;13.10;4.33;;;;;;;18.77;100.00;100441.47;5086622;28;20432;-70
2021/01/31 10:20:26;;;;;;;7.43;4.40;;;;;;;18.63;100.00;100434.06;5071554;28;20398;-72
2021/01/31 10:23:09;;;;;;;14.53;4.43;;;;;;;18.46;100.00;100442.00;5075218;28;20406;-71
2021/01/31 10:25:40;;;;;;;11.93;4.63;;;;;;;17.88;100.00;100429.41;5090422;28;20473;-70
2021/01/31 10:28:13;;;;;;;11.83;5.93;;;;;;;18.27;100.00;100416.47;5087301;28;20492;-71
2021/01/31 10:30:45;;;;;;;9.67;4.40;;;;;;;18.12;100.00;100409.25;5091531;28;20463;-70
2021/01/31 10:33:40;;;;;;;20.10;7.63;;;;;;;18.13;100.00;100406.44;5091136;28;20440;-71
2021/01/31 10:36:21;;;;;;;8.70;4.30;;;;;;;18.35;100.00;100405.03;5090719;28;20489;-69
2021/01/31 10:38:47;;;;;;;11.33;4.03;;;;;;;18.06;100.00;100410.75;5090221;28;20891;-71
2021/01/31 10:41:12;;;;;;;7.80;3.63;;;;;;;18.15;100.00;100416.94;5089845;28;20424;-70
2021/01/31 10:43:38;;;;;;;6.80;4.03;;;;;;;17.97;100.00;100422.31;5090306;28;20214;-71
2021/01/31 10:46:04;;;;;;;9.37;4.00;;;;;;;17.56;100.00;100419.38;5072593;28;20189;-70
2021/01/31 10:48:29;;;;;;;8.13;4.10;;;;;;;17.27;100.00;100417.00;5090908;28;20187;-70
2021/01/31 10:50:55;;;;;;;10.77;4.20;;;;;;;17.54;100.00;100432.00;5091178;28;20447;-72
2021/01/31 10:53:20;;;;;;;6.73;3.80;;;;;;;17.02;100.00;100439.88;5090424;28;20206;-70
2021/01/31 10:55:47;;;;;;;6.97;3.33;;;;;;;17.35;100.00;100437.50;5079978;28;20168;-70
2021/01/31 10:58:12;;;;;;;11.57;4.57;;;;;;;18.09;100.00;100430.88;5070360;28;20238;-69
2021/01/31 11:00:38;;;;;;;6.87;4.10;;;;;;;17.97;100.00;100417.84;5083982;28;20943;-71
2021/01/31 11:03:05;;;;;;;6.80;3.90;;;;;;;18.43;100.00;100417.53;5086828;28;20191;-71
2021/01/31 11:05:30;;;;;;;5.00;3.90;;;;;;;18.83;100.00;100416.84;5089394;28;20401;-69
2021/01/31 11:07:56;;;;;;;5.17;3.87;;;;;;;18.83;100.00;100406.22;5088009;28;20502;-68
2021/01/31 11:10:21;;;;;;;20.13;7.20;;;;;;;18.42;100.00;100407.88;5072097;28;20175;-69
2021/01/31 11:12:47;;;;;;;14.53;6.60;;;;;;;18.91;100.00;100398.22;5089004;28;20614;-69
2021/01/31 11:15:14;;;;;;;14.37;5.63;;;;;;;19.31;100.00;100404.56;5089260;28;20174;-71
2021/01/31 11:17:39;;;;;;;6.90;4.57;;;;;;;19.53;100.00;100409.19;5088753;28;20183;-71
2021/01/31 11:20:06;;;;;;;11.17;5.73;;;;;;;19.71;94.05;100408.19;5089823;28;20986;-69
2021/01/31 11:22:32;;;;;;;7.67;3.83;;;;;;;18.34;100.00;100413.19;5085539;28;20179;-73
2021/01/31 11:24:57;;;;;;;5.63;4.17;;;;;;;18.28;100.00;100406.66;5102982;28;20537;-74
2021/01/31 11:27:23;;;;;;;4.50;3.10;;;;;;;18.32;100.00;100407.19;5093667;28;20223;-70
2021/01/31 11:29:48;;;;;;;7.40;3.60;;;;;;;18.06;100.00;100400.13;5089778;28;20790;-72
2021/01/31 11:32:14;;;;;;;10.47;4.23;;;;;;;18.81;100.00;100405.50;5085523;28;20190;-74
2021/01/31 11:34:40;;;;;;;18.60;4.70;;;;;;;19.35;100.00;100400.56;5089909;28;20549;-72
2021/01/31 11:37:05;;;;;;;6.37;4.13;;;;;;;19.52;100.00;100388.88;5087692;28;20184;-74
2021/01/31 11:39:30;;;;;;;28.03;6.60;;;;;;;20.39;100.00;100387.09;5089784;28;20479;-73